sensor_id;sensor_type;location;lat;lon;timestamp;P1;durP1;ratioP1;P2;durP2;ratioP2
72335;SDS011;62171;48.446;8.834;2022-09-01T00:02:11;105.72;;;14.23;;
72335;SDS011;62171;48.446;8.834;2022-09-01T00:04:38;20.05;;;10.93;;
72335;SDS011;62171;48.446;8.834;2022-09-01T00:07:04;28.52;;;11.18;;
72335;SDS011;62171;48.446;8.834;2022-09-01T00:09:30;36.47;;;12.77;;
72335;SDS011;62171;48.446;8.834;2022-09-01T00:11:56;35.70;;;11.40;;
72335;SDS011;62171;48.446;8.834;2022-09-01T00:14:26;30.83;;;10.40;;
72335;SDS011;62171;48.446;8.834;2022-09-01T00:16:54;28.95;;;11.55;;
72335;SDS011;62171;48.446;8.834;2022-09-01T00:19:20;15.90;;;10.55;;
72335;SDS011;62171;48.446;8.834;2022-09-01T00:21:47;25.27;;;11.75;;
72335;SDS011;62171;48.446;8.834;2022-09-01T00:24:13;31.75;;;11.60;;
72335;SDS011;62171;48.446;8.834;2022-09-01T00:26:40;49.08;;;12.25;;
72335;SDS011;62171;48.446;8.834;2022-09-01T00:29:05;23.73;;;9.88;;
72335;SDS011;62171;48.446;8.834;2022-09-01T00:31:31;17.35;;;9.43;;
72335;SDS011;62171;48.446;8.834;2022-09-01T00:33:57;19.65;;;9.50;;
72335;SDS011;62171;48.446;8.834;2022-09-01T00:36:22;27.65;;;10.10;;
72335;SDS011;62171;48.446;8.834;2022-09-01T00:38:48;33.70;;;11.00;;
72335;SDS011;62171;48.446;8.834;2022-09-01T00:41:15;23.08;;;8.93;;
72335;SDS011;62171;48.446;8.834;2022-09-01T00:43:48;33.13;;;10.45;;
72335;SDS011;62171;48.446;8.834;2022-09-01T00:46:19;25.85;;;10.02;;
72335;SDS011;62171;48.446;8.834;2022-09-01T00:48:50;18.85;;;9.55;;
72335;SDS011;62171;48.446;8.834;2022-09-01T00:51:17;39.78;;;10.68;;
72335;SDS011;62171;48.446;8.834;2022-09-01T00:53:43;48.83;;;10.82;;
72335;SDS011;62171;48.446;8.834;2022-09-01T00:56:10;55.17;;;11.05;;
72335;SDS011;62171;48.446;8.834;2022-09-01T00:58:37;22.02;;;10.15;;
72335;SDS011;62171;48.446;8.834;2022-09-01T01:01:04;28.83;;;10.80;;
72335;SDS011;62171;48.446;8.834;2022-09-01T01:03:31;51.63;;;10.52;;
72335;SDS011;62171;48.446;8.834;2022-09-01T01:05:57;30.23;;;9.98;;
72335;SDS011;62171;48.446;8.834;2022-09-01T01:08:30;43.90;;;10.85;;
72335;SDS011;62171;48.446;8.834;2022-09-01T01:10:58;28.30;;;9.55;;
72335;SDS011;62171;48.446;8.834;2022-09-01T01:13:28;24.13;;;10.68;;
72335;SDS011;62171;48.446;8.834;2022-09-01T01:15:56;16.58;;;10.50;;
72335;SDS011;62171;48.446;8.834;2022-09-01T01:18:23;17.67;;;10.68;;
72335;SDS011;62171;48.446;8.834;2022-09-01T01:20:55;36.55;;;11.25;;
72335;SDS011;62171;48.446;8.834;2022-09-01T01:23:44;28.05;;;10.35;;
72335;SDS011;62171;48.446;8.834;2022-09-01T01:26:17;29.35;;;10.27;;
72335;SDS011;62171;48.446;8.834;2022-09-01T01:28:42;35.08;;;11.10;;
72335;SDS011;62171;48.446;8.834;2022-09-01T01:33:43;29.73;;;11.63;;
72335;SDS011;62171;48.446;8.834;2022-09-01T01:36:20;19.60;;;10.80;;
72335;SDS011;62171;48.446;8.834;2022-09-01T01:38:56;21.02;;;12.10;;
72335;SDS011;62171;48.446;8.834;2022-09-01T01:41:26;28.30;;;11.75;;
72335;SDS011;62171;48.446;8.834;2022-09-01T01:43:54;35.75;;;11.55;;
72335;SDS011;62171;48.446;8.834;2022-09-01T01:46:21;36.28;;;11.35;;
72335;SDS011;62171;48.446;8.834;2022-09-01T01:48:46;27.95;;;11.32;;
72335;SDS011;62171;48.446;8.834;2022-09-01T01:51:12;23.33;;;11.30;;
72335;SDS011;62171;48.446;8.834;2022-09-01T01:53:38;18.92;;;11.35;;
72335;SDS011;62171;48.446;8.834;2022-09-01T01:56:04;20.75;;;11.20;;
72335;SDS011;62171;48.446;8.834;2022-09-01T01:58:30;31.00;;;11.45;;
72335;SDS011;62171;48.446;8.834;2022-09-01T02:00:57;19.70;;;11.13;;
72335;SDS011;62171;48.446;8.834;2022-09-01T02:03:24;46.08;;;13.15;;
72335;SDS011;62171;48.446;8.834;2022-09-01T02:05:53;28.85;;;14.65;;
72335;SDS011;62171;48.446;8.834;2022-09-01T02:08:20;24.77;;;14.25;;
72335;SDS011;62171;48.446;8.834;2022-09-01T02:10:50;22.00;;;14.40;;
72335;SDS011;62171;48.446;8.834;2022-09-01T02:13:18;17.40;;;12.45;;
72335;SDS011;62171;48.446;8.834;2022-09-01T02:15:55;17.58;;;12.80;;
72335;SDS011;62171;48.446;8.834;2022-09-01T02:18:23;20.00;;;11.60;;
72335;SDS011;62171;48.446;8.834;2022-09-01T02:20:59;17.00;;;11.88;;
72335;SDS011;62171;48.446;8.834;2022-09-01T02:23:25;22.30;;;12.50;;
72335;SDS011;62171;48.446;8.834;2022-09-01T02:25:52;19.83;;;11.48;;
72335;SDS011;62171;48.446;8.834;2022-09-01T02:28:20;17.35;;;11.02;;
72335;SDS011;62171;48.446;8.834;2022-09-01T02:30:48;24.40;;;12.68;;
72335;SDS011;62171;48.446;8.834;2022-09-01T02:33:16;28.85;;;12.15;;
72335;SDS011;62171;48.446;8.834;2022-09-01T02:35:45;17.65;;;12.30;;
72335;SDS011;62171;48.446;8.834;2022-09-01T02:38:15;18.75;;;12.27;;
72335;SDS011;62171;48.446;8.834;2022-09-01T02:40:42;23.17;;;11.63;;
72335;SDS011;62171;48.446;8.834;2022-09-01T02:43:11;22.27;;;12.30;;
72335;SDS011;62171;48.446;8.834;2022-09-01T02:45:37;20.92;;;11.52;;
72335;SDS011;62171;48.446;8.834;2022-09-01T02:48:04;14.25;;;10.65;;
72335;SDS011;62171;48.446;8.834;2022-09-01T02:50:33;16.73;;;11.27;;
72335;SDS011;62171;48.446;8.834;2022-09-01T02:52:59;15.68;;;11.45;;
72335;SDS011;62171;48.446;8.834;2022-09-01T02:55:26;17.02;;;11.07;;
72335;SDS011;62171;48.446;8.834;2022-09-01T02:57:51;18.98;;;12.52;;
72335;SDS011;62171;48.446;8.834;2022-09-01T03:00:21;16.80;;;11.07;;
72335;SDS011;62171;48.446;8.834;2022-09-01T03:02:55;19.40;;;12.88;;
72335;SDS011;62171;48.446;8.834;2022-09-01T03:05:23;18.17;;;11.80;;
72335;SDS011;62171;48.446;8.834;2022-09-01T03:07:58;19.77;;;12.90;;
72335;SDS011;62171;48.446;8.834;2022-09-01T03:10:30;17.67;;;11.85;;
72335;SDS011;62171;48.446;8.834;2022-09-01T03:13:02;15.77;;;11.25;;
72335;SDS011;62171;48.446;8.834;2022-09-01T03:15:30;17.17;;;11.68;;
72335;SDS011;62171;48.446;8.834;2022-09-01T03:17:58;15.13;;;9.68;;
72335;SDS011;62171;48.446;8.834;2022-09-01T03:20:24;16.02;;;11.25;;
72335;SDS011;62171;48.446;8.834;2022-09-01T03:22:51;16.52;;;11.02;;
72335;SDS011;62171;48.446;8.834;2022-09-01T03:25:17;17.10;;;10.90;;
72335;SDS011;62171;48.446;8.834;2022-09-01T03:27:43;19.42;;;11.85;;
72335;SDS011;62171;48.446;8.834;2022-09-01T03:30:09;18.42;;;12.00;;
72335;SDS011;62171;48.446;8.834;2022-09-01T03:32:36;18.15;;;11.13;;
72335;SDS011;62171;48.446;8.834;2022-09-01T03:35:02;16.50;;;11.55;;
72335;SDS011;62171;48.446;8.834;2022-09-01T03:37:28;19.42;;;13.10;;
72335;SDS011;62171;48.446;8.834;2022-09-01T03:39:53;17.67;;;12.23;;
72335;SDS011;62171;48.446;8.834;2022-09-01T03:42:19;18.38;;;12.27;;
72335;SDS011;62171;48.446;8.834;2022-09-01T03:44:46;18.13;;;12.63;;
72335;SDS011;62171;48.446;8.834;2022-09-01T03:47:13;15.60;;;10.90;;
72335;SDS011;62171;48.446;8.834;2022-09-01T03:49:39;17.42;;;11.60;;
72335;SDS011;62171;48.446;8.834;2022-09-01T03:52:07;16.45;;;11.18;;
72335;SDS011;62171;48.446;8.834;2022-09-01T03:54:34;15.82;;;10.65;;
72335;SDS011;62171;48.446;8.834;2022-09-01T03:57:00;15.60;;;11.75;;
72335;SDS011;62171;48.446;8.834;2022-09-01T03:59:25;15.70;;;11.02;;
72335;SDS011;62171;48.446;8.834;2022-09-01T04:01:52;17.33;;;11.20;;
72335;SDS011;62171;48.446;8.834;2022-09-01T04:04:18;18.25;;;12.05;;
72335;SDS011;62171;48.446;8.834;2022-09-01T04:06:44;16.05;;;10.88;;
72335;SDS011;62171;48.446;8.834;2022-09-01T04:09:10;18.30;;;12.35;;
72335;SDS011;62171;48.446;8.834;2022-09-01T04:11:36;19.13;;;12.52;;
72335;SDS011;62171;48.446;8.834;2022-09-01T04:14:03;19.20;;;12.07;;
72335;SDS011;62171;48.446;8.834;2022-09-01T04:16:31;20.60;;;13.23;;
72335;SDS011;62171;48.446;8.834;2022-09-01T04:19:17;19.15;;;12.90;;
72335;SDS011;62171;48.446;8.834;2022-09-01T04:21:50;19.70;;;12.23;;
72335;SDS011;62171;48.446;8.834;2022-09-01T04:24:26;19.17;;;12.07;;
72335;SDS011;62171;48.446;8.834;2022-09-01T04:26:54;22.40;;;13.68;;
72335;SDS011;62171;48.446;8.834;2022-09-01T04:29:22;19.65;;;13.07;;
72335;SDS011;62171;48.446;8.834;2022-09-01T04:31:51;18.30;;;12.30;;
72335;SDS011;62171;48.446;8.834;2022-09-01T04:34:20;18.10;;;12.25;;
72335;SDS011;62171;48.446;8.834;2022-09-01T04:36:48;20.50;;;14.20;;
72335;SDS011;62171;48.446;8.834;2022-09-01T04:39:21;19.70;;;13.20;;
72335;SDS011;62171;48.446;8.834;2022-09-01T04:41:47;19.48;;;12.57;;
72335;SDS011;62171;48.446;8.834;2022-09-01T04:44:15;18.38;;;13.05;;
72335;SDS011;62171;48.446;8.834;2022-09-01T04:46:43;20.95;;;13.68;;
72335;SDS011;62171;48.446;8.834;2022-09-01T04:49:12;19.15;;;13.38;;
72335;SDS011;62171;48.446;8.834;2022-09-01T04:51:44;19.73;;;13.18;;
72335;SDS011;62171;48.446;8.834;2022-09-01T04:54:12;21.75;;;13.50;;
72335;SDS011;62171;48.446;8.834;2022-09-01T04:56:42;18.85;;;12.98;;
72335;SDS011;62171;48.446;8.834;2022-09-01T04:59:11;18.55;;;12.73;;
72335;SDS011;62171;48.446;8.834;2022-09-01T05:01:37;20.45;;;13.93;;
72335;SDS011;62171;48.446;8.834;2022-09-01T05:04:23;21.23;;;13.57;;
72335;SDS011;62171;48.446;8.834;2022-09-01T05:06:52;24.15;;;14.90;;
72335;SDS011;62171;48.446;8.834;2022-09-01T05:09:21;21.30;;;14.02;;
72335;SDS011;62171;48.446;8.834;2022-09-01T05:11:49;21.75;;;14.05;;
72335;SDS011;62171;48.446;8.834;2022-09-01T05:14:15;21.17;;;14.40;;
72335;SDS011;62171;48.446;8.834;2022-09-01T05:16:42;19.63;;;13.30;;
72335;SDS011;62171;48.446;8.834;2022-09-01T05:19:09;21.55;;;14.30;;
72335;SDS011;62171;48.446;8.834;2022-09-01T05:21:39;20.92;;;14.32;;
72335;SDS011;62171;48.446;8.834;2022-09-01T05:24:09;20.27;;;14.30;;
72335;SDS011;62171;48.446;8.834;2022-09-01T05:26:36;18.45;;;12.77;;
72335;SDS011;62171;48.446;8.834;2022-09-01T05:29:03;22.10;;;15.02;;
72335;SDS011;62171;48.446;8.834;2022-09-01T05:31:34;20.73;;;13.95;;
72335;SDS011;62171;48.446;8.834;2022-09-01T05:34:01;21.50;;;14.07;;
72335;SDS011;62171;48.446;8.834;2022-09-01T05:36:27;19.88;;;14.77;;
72335;SDS011;62171;48.446;8.834;2022-09-01T05:38:57;21.63;;;13.82;;
72335;SDS011;62171;48.446;8.834;2022-09-01T05:41:24;22.75;;;14.73;;
72335;SDS011;62171;48.446;8.834;2022-09-01T05:43:50;24.10;;;15.35;;
72335;SDS011;62171;48.446;8.834;2022-09-01T05:46:23;22.60;;;14.80;;
72335;SDS011;62171;48.446;8.834;2022-09-01T05:48:51;20.60;;;13.00;;
72335;SDS011;62171;48.446;8.834;2022-09-01T05:51:18;23.40;;;14.02;;
72335;SDS011;62171;48.446;8.834;2022-09-01T05:53:46;22.48;;;14.40;;
72335;SDS011;62171;48.446;8.834;2022-09-01T05:56:15;25.48;;;14.35;;
72335;SDS011;62171;48.446;8.834;2022-09-01T05:58:43;21.27;;;14.27;;
72335;SDS011;62171;48.446;8.834;2022-09-01T06:01:14;21.80;;;14.07;;
72335;SDS011;62171;48.446;8.834;2022-09-01T06:03:51;19.75;;;13.60;;
72335;SDS011;62171;48.446;8.834;2022-09-01T06:06:22;22.20;;;14.40;;
72335;SDS011;62171;48.446;8.834;2022-09-01T06:08:51;25.10;;;14.40;;
72335;SDS011;62171;48.446;8.834;2022-09-01T06:11:17;23.50;;;14.40;;
72335;SDS011;62171;48.446;8.834;2022-09-01T06:13:44;21.55;;;14.98;;
72335;SDS011;62171;48.446;8.834;2022-09-01T06:16:11;22.75;;;14.93;;
72335;SDS011;62171;48.446;8.834;2022-09-01T06:18:40;26.02;;;15.07;;
72335;SDS011;62171;48.446;8.834;2022-09-01T06:21:07;21.92;;;13.52;;
72335;SDS011;62171;48.446;8.834;2022-09-01T06:23:36;21.92;;;14.70;;
72335;SDS011;62171;48.446;8.834;2022-09-01T06:26:02;23.38;;;14.07;;
72335;SDS011;62171;48.446;8.834;2022-09-01T06:28:27;22.17;;;14.00;;
72335;SDS011;62171;48.446;8.834;2022-09-01T06:30:54;21.38;;;15.18;;
72335;SDS011;62171;48.446;8.834;2022-09-01T06:33:21;22.15;;;14.52;;
72335;SDS011;62171;48.446;8.834;2022-09-01T06:35:50;20.00;;;13.52;;
72335;SDS011;62171;48.446;8.834;2022-09-01T06:38:16;21.55;;;14.65;;
72335;SDS011;62171;48.446;8.834;2022-09-01T06:40:43;19.95;;;12.70;;
72335;SDS011;62171;48.446;8.834;2022-09-01T06:43:09;18.38;;;13.07;;
72335;SDS011;62171;48.446;8.834;2022-09-01T06:45:43;17.63;;;12.50;;
72335;SDS011;62171;48.446;8.834;2022-09-01T06:48:18;22.25;;;13.35;;
72335;SDS011;62171;48.446;8.834;2022-09-01T06:50:44;18.42;;;13.18;;
72335;SDS011;62171;48.446;8.834;2022-09-01T06:53:10;19.92;;;13.60;;
72335;SDS011;62171;48.446;8.834;2022-09-01T06:55:38;20.77;;;13.82;;
72335;SDS011;62171;48.446;8.834;2022-09-01T06:58:07;18.25;;;12.15;;
72335;SDS011;62171;48.446;8.834;2022-09-01T07:00:36;18.35;;;12.57;;
72335;SDS011;62171;48.446;8.834;2022-09-01T07:03:06;19.20;;;12.88;;
72335;SDS011;62171;48.446;8.834;2022-09-01T07:05:37;18.05;;;12.52;;
72335;SDS011;62171;48.446;8.834;2022-09-01T07:08:04;17.25;;;12.43;;
72335;SDS011;62171;48.446;8.834;2022-09-01T07:10:38;18.73;;;12.50;;
72335;SDS011;62171;48.446;8.834;2022-09-01T07:13:11;16.63;;;12.55;;
72335;SDS011;62171;48.446;8.834;2022-09-01T07:15:42;19.58;;;13.77;;
72335;SDS011;62171;48.446;8.834;2022-09-01T07:18:08;17.73;;;12.50;;
72335;SDS011;62171;48.446;8.834;2022-09-01T07:20:39;16.27;;;11.68;;
72335;SDS011;62171;48.446;8.834;2022-09-01T07:23:05;18.23;;;12.77;;
72335;SDS011;62171;48.446;8.834;2022-09-01T07:25:32;20.27;;;12.57;;
72335;SDS011;62171;48.446;8.834;2022-09-01T07:28:03;17.10;;;12.32;;
72335;SDS011;62171;48.446;8.834;2022-09-01T07:30:29;18.08;;;12.75;;
72335;SDS011;62171;48.446;8.834;2022-09-01T07:32:55;16.85;;;12.52;;
72335;SDS011;62171;48.446;8.834;2022-09-01T07:35:21;17.33;;;12.00;;
72335;SDS011;62171;48.446;8.834;2022-09-01T07:37:47;17.30;;;12.80;;
72335;SDS011;62171;48.446;8.834;2022-09-01T07:40:16;17.00;;;12.30;;
72335;SDS011;62171;48.446;8.834;2022-09-01T07:42:44;15.82;;;11.73;;
72335;SDS011;62171;48.446;8.834;2022-09-01T07:45:12;16.33;;;11.60;;
72335;SDS011;62171;48.446;8.834;2022-09-01T07:47:41;16.52;;;11.55;;
72335;SDS011;62171;48.446;8.834;2022-09-01T07:50:07;18.35;;;11.10;;
72335;SDS011;62171;48.446;8.834;2022-09-01T07:52:35;14.02;;;11.20;;
72335;SDS011;62171;48.446;8.834;2022-09-01T07:55:02;13.65;;;10.25;;
72335;SDS011;62171;48.446;8.834;2022-09-01T07:57:28;13.98;;;9.85;;
72335;SDS011;62171;48.446;8.834;2022-09-01T07:59:53;15.23;;;10.15;;
72335;SDS011;62171;48.446;8.834;2022-09-01T08:02:20;14.85;;;10.35;;
72335;SDS011;62171;48.446;8.834;2022-09-01T08:04:46;15.90;;;10.88;;
72335;SDS011;62171;48.446;8.834;2022-09-01T08:07:12;15.35;;;10.07;;
72335;SDS011;62171;48.446;8.834;2022-09-01T08:09:38;14.20;;;11.68;;
72335;SDS011;62171;48.446;8.834;2022-09-01T08:12:05;12.43;;;9.73;;
72335;SDS011;62171;48.446;8.834;2022-09-01T08:14:31;16.17;;;10.55;;
72335;SDS011;62171;48.446;8.834;2022-09-01T08:16:57;12.82;;;9.75;;
72335;SDS011;62171;48.446;8.834;2022-09-01T08:19:22;13.43;;;9.77;;
72335;SDS011;62171;48.446;8.834;2022-09-01T08:21:48;15.88;;;10.68;;
72335;SDS011;62171;48.446;8.834;2022-09-01T08:24:13;12.20;;;9.60;;
72335;SDS011;62171;48.446;8.834;2022-09-01T08:26:38;13.20;;;10.10;;
72335;SDS011;62171;48.446;8.834;2022-09-01T08:29:04;12.82;;;9.93;;
72335;SDS011;62171;48.446;8.834;2022-09-01T08:31:29;15.55;;;9.13;;
72335;SDS011;62171;48.446;8.834;2022-09-01T08:33:55;11.48;;;8.63;;
72335;SDS011;62171;48.446;8.834;2022-09-01T08:36:21;10.98;;;8.27;;
72335;SDS011;62171;48.446;8.834;2022-09-01T08:38:46;10.75;;;8.40;;
72335;SDS011;62171;48.446;8.834;2022-09-01T08:41:57;10.23;;;7.93;;
72335;SDS011;62171;48.446;8.834;2022-09-01T08:44:30;9.43;;;7.28;;
72335;SDS011;62171;48.446;8.834;2022-09-01T08:47:17;9.82;;;7.00;;
72335;SDS011;62171;48.446;8.834;2022-09-01T08:49:43;9.43;;;7.10;;
72335;SDS011;62171;48.446;8.834;2022-09-01T08:55:17;8.02;;;6.60;;
72335;SDS011;62171;48.446;8.834;2022-09-01T08:57:49;10.45;;;6.90;;
72335;SDS011;62171;48.446;8.834;2022-09-01T09:00:20;9.85;;;6.65;;
72335;SDS011;62171;48.446;8.834;2022-09-01T09:11:04;6.78;;;5.82;;
72335;SDS011;62171;48.446;8.834;2022-09-01T09:16:15;6.50;;;5.32;;
72335;SDS011;62171;48.446;8.834;2022-09-01T09:18:50;5.95;;;4.95;;
72335;SDS011;62171;48.446;8.834;2022-09-01T09:26:35;6.38;;;5.55;;
72335;SDS011;62171;48.446;8.834;2022-09-01T09:29:00;6.03;;;4.88;;
72335;SDS011;62171;48.446;8.834;2022-09-01T09:31:36;7.50;;;5.03;;
72335;SDS011;62171;48.446;8.834;2022-09-01T09:36:59;5.28;;;4.07;;
72335;SDS011;62171;48.446;8.834;2022-09-01T09:39:26;4.43;;;3.78;;
72335;SDS011;62171;48.446;8.834;2022-09-01T09:42:05;4.82;;;3.35;;
72335;SDS011;62171;48.446;8.834;2022-09-01T09:44:38;4.78;;;3.45;;
72335;SDS011;62171;48.446;8.834;2022-09-01T09:47:08;4.38;;;3.60;;
72335;SDS011;62171;48.446;8.834;2022-09-01T09:49:35;7.25;;;3.47;;
72335;SDS011;62171;48.446;8.834;2022-09-01T09:54:27;3.87;;;3.17;;
72335;SDS011;62171;48.446;8.834;2022-09-01T10:04:55;4.13;;;3.53;;
72335;SDS011;62171;48.446;8.834;2022-09-01T10:07:25;5.28;;;4.00;;
72335;SDS011;62171;48.446;8.834;2022-09-01T10:10:00;3.58;;;3.25;;
72335;SDS011;62171;48.446;8.834;2022-09-01T10:12:48;5.25;;;3.45;;
72335;SDS011;62171;48.446;8.834;2022-09-01T10:15:14;5.85;;;3.47;;
72335;SDS011;62171;48.446;8.834;2022-09-01T10:17:43;6.97;;;3.50;;
72335;SDS011;62171;48.446;8.834;2022-09-01T10:20:13;5.10;;;3.30;;
72335;SDS011;62171;48.446;8.834;2022-09-01T10:22:45;4.57;;;3.22;;
72335;SDS011;62171;48.446;8.834;2022-09-01T10:25:22;3.08;;;2.78;;
72335;SDS011;62171;48.446;8.834;2022-09-01T10:27:51;4.25;;;3.40;;
72335;SDS011;62171;48.446;8.834;2022-09-01T10:30:22;3.22;;;2.90;;
72335;SDS011;62171;48.446;8.834;2022-09-01T10:32:52;6.47;;;3.50;;
72335;SDS011;62171;48.446;8.834;2022-09-01T10:38:01;5.10;;;3.20;;
72335;SDS011;62171;48.446;8.834;2022-09-01T10:40:35;3.85;;;3.00;;
72335;SDS011;62171;48.446;8.834;2022-09-01T10:45:52;5.45;;;3.30;;
72335;SDS011;62171;48.446;8.834;2022-09-01T10:50:44;4.80;;;3.15;;
72335;SDS011;62171;48.446;8.834;2022-09-01T10:53:36;4.72;;;3.10;;
72335;SDS011;62171;48.446;8.834;2022-09-01T10:58:59;3.40;;;2.95;;
72335;SDS011;62171;48.446;8.834;2022-09-01T11:04:15;4.32;;;2.97;;
72335;SDS011;62171;48.446;8.834;2022-09-01T11:07:04;3.55;;;3.22;;
72335;SDS011;62171;48.446;8.834;2022-09-01T11:12:38;5.35;;;2.30;;
72335;SDS011;62171;48.446;8.834;2022-09-01T11:15:31;3.83;;;2.60;;
72335;SDS011;62171;48.446;8.834;2022-09-01T11:17:59;3.15;;;2.53;;
72335;SDS011;62171;48.446;8.834;2022-09-01T11:20:30;3.13;;;2.22;;
72335;SDS011;62171;48.446;8.834;2022-09-01T11:41:57;2.38;;;1.92;;
72335;SDS011;62171;48.446;8.834;2022-09-01T11:47:32;2.58;;;1.92;;
72335;SDS011;62171;48.446;8.834;2022-09-01T11:50:03;2.38;;;2.13;;
72335;SDS011;62171;48.446;8.834;2022-09-01T11:52:31;2.10;;;1.90;;
72335;SDS011;62171;48.446;8.834;2022-09-01T11:55:00;2.63;;;2.22;;
72335;SDS011;62171;48.446;8.834;2022-09-01T11:57:37;1.75;;;1.65;;
72335;SDS011;62171;48.446;8.834;2022-09-01T12:00:11;2.63;;;2.00;;
72335;SDS011;62171;48.446;8.834;2022-09-01T12:02:44;2.03;;;1.80;;
72335;SDS011;62171;48.446;8.834;2022-09-01T12:07:51;2.10;;;1.90;;
72335;SDS011;62171;48.446;8.834;2022-09-01T12:12:46;2.28;;;2.03;;
72335;SDS011;62171;48.446;8.834;2022-09-01T12:15:20;2.67;;;2.10;;
72335;SDS011;62171;48.446;8.834;2022-09-01T12:17:47;1.73;;;1.63;;
72335;SDS011;62171;48.446;8.834;2022-09-01T12:20:24;2.05;;;1.80;;
72335;SDS011;62171;48.446;8.834;2022-09-01T12:22:49;2.58;;;2.20;;
72335;SDS011;62171;48.446;8.834;2022-09-01T12:25:22;2.88;;;1.90;;
72335;SDS011;62171;48.446;8.834;2022-09-01T12:27:48;2.78;;;2.03;;
72335;SDS011;62171;48.446;8.834;2022-09-01T12:30:14;2.05;;;1.83;;
72335;SDS011;62171;48.446;8.834;2022-09-01T12:32:39;4.80;;;2.10;;
72335;SDS011;62171;48.446;8.834;2022-09-01T12:35:13;2.13;;;1.77;;
72335;SDS011;62171;48.446;8.834;2022-09-01T12:37:44;4.80;;;1.77;;
72335;SDS011;62171;48.446;8.834;2022-09-01T12:40:21;2.55;;;2.10;;
72335;SDS011;62171;48.446;8.834;2022-09-01T12:42:49;2.17;;;1.85;;
72335;SDS011;62171;48.446;8.834;2022-09-01T12:45:34;2.17;;;1.85;;
72335;SDS011;62171;48.446;8.834;2022-09-01T12:48:04;2.10;;;1.90;;
72335;SDS011;62171;48.446;8.834;2022-09-01T12:52:59;2.58;;;2.03;;
72335;SDS011;62171;48.446;8.834;2022-09-01T12:55:33;2.85;;;2.22;;
72335;SDS011;62171;48.446;8.834;2022-09-01T12:58:04;2.65;;;2.20;;
72335;SDS011;62171;48.446;8.834;2022-09-01T13:00:32;5.22;;;2.20;;
72335;SDS011;62171;48.446;8.834;2022-09-01T13:05:40;3.15;;;1.50;;
72335;SDS011;62171;48.446;8.834;2022-09-01T13:10:53;2.25;;;1.55;;
72335;SDS011;62171;48.446;8.834;2022-09-01T13:13:21;2.17;;;1.70;;
72335;SDS011;62171;48.446;8.834;2022-09-01T13:15:49;3.58;;;1.92;;
72335;SDS011;62171;48.446;8.834;2022-09-01T13:18:18;2.30;;;1.70;;
72335;SDS011;62171;48.446;8.834;2022-09-01T13:20:45;1.77;;;1.60;;
72335;SDS011;62171;48.446;8.834;2022-09-01T13:23:11;3.47;;;1.73;;
72335;SDS011;62171;48.446;8.834;2022-09-01T13:25:38;2.00;;;1.73;;
72335;SDS011;62171;48.446;8.834;2022-09-01T13:28:04;2.05;;;1.50;;
72335;SDS011;62171;48.446;8.834;2022-09-01T13:30:32;2.33;;;1.50;;
72335;SDS011;62171;48.446;8.834;2022-09-01T13:32:59;2.30;;;1.50;;
72335;SDS011;62171;48.446;8.834;2022-09-01T13:35:25;2.65;;;1.50;;
72335;SDS011;62171;48.446;8.834;2022-09-01T13:37:51;3.15;;;1.60;;
72335;SDS011;62171;48.446;8.834;2022-09-01T13:40:17;2.17;;;1.45;;
72335;SDS011;62171;48.446;8.834;2022-09-01T13:42:46;1.70;;;1.50;;
72335;SDS011;62171;48.446;8.834;2022-09-01T13:45:16;1.95;;;1.70;;
72335;SDS011;62171;48.446;8.834;2022-09-01T13:47:43;2.22;;;1.50;;
72335;SDS011;62171;48.446;8.834;2022-09-01T13:50:10;1.73;;;1.63;;
72335;SDS011;62171;48.446;8.834;2022-09-01T13:52:46;1.58;;;1.48;;
72335;SDS011;62171;48.446;8.834;2022-09-01T13:55:15;1.77;;;1.48;;
72335;SDS011;62171;48.446;8.834;2022-09-01T13:57:42;2.33;;;1.58;;
72335;SDS011;62171;48.446;8.834;2022-09-01T14:00:09;2.22;;;1.65;;
72335;SDS011;62171;48.446;8.834;2022-09-01T14:02:38;1.83;;;1.42;;
72335;SDS011;62171;48.446;8.834;2022-09-01T14:05:06;2.50;;;1.65;;
72335;SDS011;62171;48.446;8.834;2022-09-01T14:07:32;2.08;;;1.85;;
72335;SDS011;62171;48.446;8.834;2022-09-01T14:09:57;1.48;;;1.38;;
72335;SDS011;62171;48.446;8.834;2022-09-01T14:12:23;1.77;;;1.55;;
72335;SDS011;62171;48.446;8.834;2022-09-01T14:14:48;1.45;;;1.33;;
72335;SDS011;62171;48.446;8.834;2022-09-01T14:17:14;1.58;;;1.45;;
72335;SDS011;62171;48.446;8.834;2022-09-01T14:19:40;1.52;;;1.42;;
72335;SDS011;62171;48.446;8.834;2022-09-01T14:22:06;2.55;;;2.33;;
72335;SDS011;62171;48.446;8.834;2022-09-01T14:24:35;2.38;;;1.70;;
72335;SDS011;62171;48.446;8.834;2022-09-01T14:27:01;2.38;;;1.83;;
72335;SDS011;62171;48.446;8.834;2022-09-01T14:29:27;2.45;;;1.80;;
72335;SDS011;62171;48.446;8.834;2022-09-01T14:31:53;2.00;;;1.80;;
72335;SDS011;62171;48.446;8.834;2022-09-01T14:34:21;1.85;;;1.67;;
72335;SDS011;62171;48.446;8.834;2022-09-01T14:36:49;1.92;;;1.73;;
72335;SDS011;62171;48.446;8.834;2022-09-01T14:39:18;2.20;;;2.00;;
72335;SDS011;62171;48.446;8.834;2022-09-01T14:41:44;2.17;;;1.98;;
72335;SDS011;62171;48.446;8.834;2022-09-01T14:44:09;1.95;;;1.75;;
72335;SDS011;62171;48.446;8.834;2022-09-01T14:46:35;2.40;;;1.67;;
72335;SDS011;62171;48.446;8.834;2022-09-01T14:49:01;2.58;;;2.13;;
72335;SDS011;62171;48.446;8.834;2022-09-01T14:51:28;2.50;;;2.20;;
72335;SDS011;62171;48.446;8.834;2022-09-01T14:53:55;2.53;;;2.13;;
72335;SDS011;62171;48.446;8.834;2022-09-01T14:56:21;2.85;;;2.10;;
72335;SDS011;62171;48.446;8.834;2022-09-01T14:58:47;2.65;;;2.25;;
72335;SDS011;62171;48.446;8.834;2022-09-01T15:01:14;2.17;;;1.60;;
72335;SDS011;62171;48.446;8.834;2022-09-01T15:03:42;2.45;;;2.08;;
72335;SDS011;62171;48.446;8.834;2022-09-01T15:06:18;3.22;;;1.90;;
72335;SDS011;62171;48.446;8.834;2022-09-01T15:08:45;4.30;;;2.17;;
72335;SDS011;62171;48.446;8.834;2022-09-01T15:11:12;2.22;;;1.73;;
72335;SDS011;62171;48.446;8.834;2022-09-01T15:13:39;2.70;;;1.73;;
72335;SDS011;62171;48.446;8.834;2022-09-01T15:16:11;2.90;;;1.83;;
72335;SDS011;62171;48.446;8.834;2022-09-01T15:18:38;2.38;;;1.80;;
72335;SDS011;62171;48.446;8.834;2022-09-01T15:21:04;1.95;;;1.55;;
72335;SDS011;62171;48.446;8.834;2022-09-01T15:23:30;3.72;;;1.70;;
72335;SDS011;62171;48.446;8.834;2022-09-01T15:25:55;1.65;;;1.55;;
72335;SDS011;62171;48.446;8.834;2022-09-01T15:28:24;3.25;;;1.60;;
72335;SDS011;62171;48.446;8.834;2022-09-01T15:30:51;1.90;;;1.52;;
72335;SDS011;62171;48.446;8.834;2022-09-01T15:33:17;1.70;;;1.58;;
72335;SDS011;62171;48.446;8.834;2022-09-01T15:35:44;2.10;;;1.70;;
72335;SDS011;62171;48.446;8.834;2022-09-01T15:38:10;2.55;;;1.77;;
72335;SDS011;62171;48.446;8.834;2022-09-01T15:40:40;1.70;;;1.55;;
72335;SDS011;62171;48.446;8.834;2022-09-01T15:43:07;3.25;;;1.80;;
72335;SDS011;62171;48.446;8.834;2022-09-01T15:45:33;2.28;;;1.40;;
72335;SDS011;62171;48.446;8.834;2022-09-01T15:47:59;1.80;;;1.55;;
72335;SDS011;62171;48.446;8.834;2022-09-01T15:50:25;1.95;;;1.70;;
72335;SDS011;62171;48.446;8.834;2022-09-01T15:55:22;2.17;;;1.70;;
72335;SDS011;62171;48.446;8.834;2022-09-01T15:57:49;1.95;;;1.75;;
72335;SDS011;62171;48.446;8.834;2022-09-01T16:00:16;1.95;;;1.60;;
72335;SDS011;62171;48.446;8.834;2022-09-01T16:02:42;2.22;;;1.42;;
72335;SDS011;62171;48.446;8.834;2022-09-01T16:05:08;2.08;;;1.55;;
72335;SDS011;62171;48.446;8.834;2022-09-01T16:07:35;1.88;;;1.30;;
72335;SDS011;62171;48.446;8.834;2022-09-01T16:10:00;2.33;;;1.50;;
72335;SDS011;62171;48.446;8.834;2022-09-01T16:12:26;3.85;;;1.92;;